createdAt,value
2022-10-02T00:01:58.106Z,95814.91
2022-10-02T00:04:28.400Z,95816.16
2022-10-02T00:06:58.016Z,95815.81
2022-10-02T00:09:30.107Z,95827.22
2022-10-02T00:11:59.049Z,95836.78
2022-10-02T00:14:30.344Z,95831.09
2022-10-02T00:16:59.204Z,95835.91
2022-10-02T00:19:27.615Z,95838.50
2022-10-02T00:22:10.531Z,95846.47
2022-10-02T00:24:39.780Z,95850.22
2022-10-02T00:27:15.660Z,95853.22
2022-10-02T00:29:49.145Z,95846.03
2022-10-02T00:32:21.656Z,95849.75
2022-10-02T00:35:25.800Z,95850.56
2022-10-02T00:37:56.111Z,95848.47
2022-10-02T00:40:51.356Z,95842.88
2022-10-02T00:43:24.763Z,95843.63
2022-10-02T00:46:08.171Z,95853.78
2022-10-02T00:49:01.118Z,95843.72
2022-10-02T00:51:36.931Z,95851.53
2022-10-02T00:54:11.797Z,95843.81
2022-10-02T00:56:42.122Z,95848.41
2022-10-02T00:59:40.857Z,95860.41
2022-10-02T01:02:12.855Z,95849.22
2022-10-02T01:04:41.235Z,95851.97
2022-10-02T01:07:11.689Z,95853.59
2022-10-02T01:09:40.102Z,95852.81
2022-10-02T01:12:08.334Z,95849.91
2022-10-02T01:14:36.686Z,95859.50
2022-10-02T01:17:04.795Z,95862.69
2022-10-02T01:19:37.239Z,95863.78
2022-10-02T01:22:08.282Z,95868.81
2022-10-02T01:24:38.289Z,95865.31
2022-10-02T01:27:07.721Z,95870.13
2022-10-02T01:29:35.772Z,95875.41
2022-10-02T01:32:03.885Z,95871.34
2022-10-02T01:34:31.965Z,95871.25
2022-10-02T01:37:00.348Z,95866.16
2022-10-02T01:39:28.459Z,95876.50
2022-10-02T01:41:56.559Z,95881.84
2022-10-02T01:44:25.983Z,95876.81
2022-10-02T01:46:57.291Z,95884.84
2022-10-02T01:49:37.613Z,95877.66
2022-10-02T01:52:27.398Z,95881.34
2022-10-02T01:55:06.885Z,95887.94
2022-10-02T01:57:45.354Z,95888.44
2022-10-02T02:00:17.374Z,95889.81
2022-10-02T02:02:52.873Z,95891.50
2022-10-02T02:05:31.132Z,95887.00
2022-10-02T02:08:02.462Z,95884.84
2022-10-02T02:10:35.998Z,95888.88
2022-10-02T02:13:05.338Z,95886.53
2022-10-02T02:15:38.145Z,95896.38
2022-10-02T02:18:08.958Z,95886.75
2022-10-02T02:20:39.461Z,95895.78
2022-10-02T02:23:09.222Z,95879.22
2022-10-02T02:25:39.462Z,95895.22
2022-10-02T02:28:08.472Z,95892.31
2022-10-02T02:30:38.598Z,95891.44
2022-10-02T02:33:08.325Z,95898.34
2022-10-02T02:35:37.450Z,95894.88
2022-10-02T02:38:07.099Z,95895.16
2022-10-02T02:40:37.346Z,95899.41
2022-10-02T02:43:06.743Z,95902.88
2022-10-02T02:45:37.399Z,95899.09
2022-10-02T02:48:08.989Z,95899.66
2022-10-02T02:50:38.403Z,95897.78
2022-10-02T02:53:08.218Z,95892.38
2022-10-02T02:55:39.384Z,95891.06
2022-10-02T02:58:12.142Z,95898.00
2022-10-02T03:00:40.550Z,95907.03
2022-10-02T03:03:10.064Z,95899.53
2022-10-02T03:05:39.237Z,95901.09
2022-10-02T03:08:09.148Z,95900.72
2022-10-02T03:10:43.785Z,95898.81
2022-10-02T03:13:26.072Z,95897.69
2022-10-02T03:16:02.137Z,95893.53
2022-10-02T03:18:37.653Z,95899.69
2022-10-02T03:21:10.592Z,95899.63
2022-10-02T03:23:42.719Z,95897.69
2022-10-02T03:26:13.290Z,95886.81
2022-10-02T03:28:55.381Z,95899.69
2022-10-02T03:31:24.438Z,95899.75
2022-10-02T03:33:54.765Z,95906.72
2022-10-02T03:36:24.519Z,95910.44
2022-10-02T03:39:12.524Z,95908.03
2022-10-02T03:41:41.446Z,95912.91
2022-10-02T03:44:09.501Z,95912.38
2022-10-02T03:46:37.744Z,95906.22
2022-10-02T03:49:07.543Z,95906.00
2022-10-02T03:51:35.577Z,95905.78
2022-10-02T03:54:03.655Z,95906.38
2022-10-02T03:56:35.933Z,95905.34
2022-10-02T03:59:04.662Z,95909.16
2022-10-02T04:01:33.962Z,95912.94
2022-10-02T04:04:04.269Z,95901.75
2022-10-02T04:06:39.726Z,95915.19
2022-10-02T04:09:10.208Z,95912.84
2022-10-02T04:11:40.249Z,95915.81
2022-10-02T04:14:11.162Z,95914.72
2022-10-02T04:16:41.066Z,95904.88
2022-10-02T04:19:12.703Z,95909.94
2022-10-02T04:21:44.547Z,95902.00
2022-10-02T04:24:17.839Z,95906.81
2022-10-02T04:26:47.797Z,95905.25
2022-10-02T04:29:17.722Z,95901.28
2022-10-02T04:31:46.613Z,95908.50
2022-10-02T04:34:14.811Z,95909.56
2022-10-02T04:36:52.881Z,95904.53
2022-10-02T04:39:28.982Z,95909.91
2022-10-02T04:42:08.970Z,95920.88
2022-10-02T04:44:44.143Z,95915.03
2022-10-02T04:47:24.085Z,95910.25
2022-10-02T04:49:59.768Z,95914.00
2022-10-02T04:52:42.642Z,95914.56
2022-10-02T04:55:26.487Z,95918.84
2022-10-02T04:58:06.998Z,95910.84
2022-10-02T05:00:36.565Z,95913.00
2022-10-02T05:03:14.461Z,95913.00
2022-10-02T05:05:56.733Z,95911.97
2022-10-02T05:08:39.489Z,95911.41
2022-10-02T05:11:15.131Z,95922.31
2022-10-02T05:14:00.708Z,95913.53
2022-10-02T05:16:37.122Z,95900.97
2022-10-02T05:19:26.306Z,95915.94
2022-10-02T05:22:14.917Z,95907.94
2022-10-02T05:24:51.788Z,95918.84
2022-10-02T05:27:40.467Z,95919.09
2022-10-02T05:30:10.277Z,95912.38
2022-10-02T05:33:00.127Z,95908.09
2022-10-02T05:35:50.186Z,95905.25
2022-10-02T05:38:23.519Z,95907.34
2022-10-02T05:40:57.298Z,95911.59
2022-10-02T05:43:28.353Z,95913.19
2022-10-02T05:45:57.600Z,95908.72
2022-10-02T05:48:27.278Z,95908.47
2022-10-02T05:50:59.427Z,95900.53
2022-10-02T05:53:33.017Z,95911.28
2022-10-02T05:56:03.783Z,95916.69
2022-10-02T05:58:41.001Z,95908.47
2022-10-02T06:01:17.221Z,95907.16
2022-10-02T06:03:49.462Z,95911.50
2022-10-02T06:06:19.588Z,95902.97
2022-10-02T06:08:49.726Z,95911.84
2022-10-02T06:11:21.366Z,95918.53
2022-10-02T06:13:50.987Z,95918.03
2022-10-02T06:16:21.080Z,95908.41
2022-10-02T06:18:51.567Z,95916.44
2022-10-02T06:21:25.720Z,95918.84
2022-10-02T06:23:54.912Z,95908.75
2022-10-02T06:26:27.094Z,95912.53
2022-10-02T06:28:57.351Z,95910.66
2022-10-02T06:31:31.153Z,95916.28
2022-10-02T06:33:59.330Z,95923.50
2022-10-02T06:36:40.091Z,95913.63
2022-10-02T06:39:26.999Z,95922.16
2022-10-02T06:42:01.576Z,95917.09
2022-10-02T06:44:32.021Z,95912.53
2022-10-02T06:47:10.662Z,95916.28
2022-10-02T06:49:46.434Z,95912.84
2022-10-02T06:52:20.390Z,95909.34
2022-10-02T06:54:55.767Z,95912.00
2022-10-02T06:57:34.502Z,95909.06
2022-10-02T07:00:12.034Z,95906.13
2022-10-02T07:03:17.149Z,95909.34
2022-10-02T07:05:53.391Z,95906.66
2022-10-02T07:08:26.276Z,95910.66
2022-10-02T07:10:57.892Z,95906.63
2022-10-02T07:13:42.975Z,95918.44
2022-10-02T07:16:37.206Z,95915.72
2022-10-02T07:19:30.559Z,95909.25
2022-10-02T07:22:15.173Z,95901.69
2022-10-02T07:24:59.831Z,95899.78
2022-10-02T07:27:29.811Z,95900.81
2022-10-02T07:30:00.979Z,95898.16
2022-10-02T07:32:48.878Z,95898.13
2022-10-02T07:35:42.016Z,95900.78
2022-10-02T07:38:45.888Z,95897.84
2022-10-02T07:41:41.818Z,95898.59
2022-10-02T07:44:17.006Z,95904.75
2022-10-02T07:46:49.826Z,95906.34
2022-10-02T07:49:25.667Z,95904.72
2022-10-02T07:51:56.942Z,95905.78
2022-10-02T07:54:47.871Z,95905.78
2022-10-02T07:57:26.158Z,95906.06
2022-10-02T07:59:55.290Z,95910.63
2022-10-02T08:02:28.218Z,95910.91
2022-10-02T08:04:58.394Z,95912.78
2022-10-02T08:07:26.497Z,95918.19
2022-10-02T08:09:54.582Z,95910.94
2022-10-02T08:12:28.894Z,95915.53
2022-10-02T08:14:57.147Z,95914.69
2022-10-02T08:17:30.438Z,95923.25
2022-10-02T08:20:00.767Z,95916.75
2022-10-02T08:22:31.923Z,95921.25
2022-10-02T08:25:04.494Z,95924.97
2022-10-02T08:27:46.954Z,95926.03
2022-10-02T08:30:15.767Z,95917.66
2022-10-02T08:32:47.874Z,95922.69
2022-10-02T08:35:16.757Z,95919.47
2022-10-02T08:38:01.407Z,95918.38
2022-10-02T08:41:06.046Z,95912.94
2022-10-02T08:43:51.754Z,95911.59
2022-10-02T08:46:35.797Z,95925.53
2022-10-02T08:49:38.346Z,95919.88
2022-10-02T08:52:47.016Z,95919.25
2022-10-02T08:55:52.106Z,95922.41
2022-10-02T08:58:46.119Z,95918.59
2022-10-02T09:01:25.546Z,95912.91
2022-10-02T09:04:28.290Z,95907.72
2022-10-02T09:07:17.231Z,95901.75
2022-10-02T09:10:15.884Z,95910.09
2022-10-02T09:13:18.669Z,95908.47
2022-10-02T09:15:47.169Z,95906.56
2022-10-02T09:18:19.860Z,95903.78
2022-10-02T09:21:15.696Z,95897.81
2022-10-02T09:24:32.398Z,95904.06
2022-10-02T09:27:26.073Z,95902.22
2022-10-02T09:30:28.281Z,95897.63
2022-10-02T09:33:39.804Z,95894.44
2022-10-02T09:36:33.940Z,95893.66
2022-10-02T09:39:44.115Z,95895.25
2022-10-02T09:42:48.121Z,95888.16
2022-10-02T09:45:55.013Z,95899.94
2022-10-02T09:49:00.675Z,95897.34
2022-10-02T09:51:59.622Z,95897.34
2022-10-02T09:55:08.846Z,95892.78
2022-10-02T09:58:09.147Z,95887.66
2022-10-02T10:00:55.257Z,95891.66
2022-10-02T10:03:41.138Z,95891.84
2022-10-02T10:06:54.890Z,95890.69
2022-10-02T10:09:35.312Z,95892.75
2022-10-02T10:12:18.709Z,95893.03
2022-10-02T10:15:17.229Z,95892.81
2022-10-02T10:18:18.906Z,95890.69
2022-10-02T10:21:00.567Z,95889.06
2022-10-02T10:23:41.878Z,95889.03
2022-10-02T10:26:35.462Z,95889.63
2022-10-02T10:29:45.375Z,95884.75
2022-10-02T10:32:40.107Z,95884.75
2022-10-02T10:35:21.906Z,95881.09
2022-10-02T10:38:20.345Z,95888.38
2022-10-02T10:40:59.720Z,95886.44
2022-10-02T10:44:00.875Z,95896.97
2022-10-02T10:46:39.401Z,95889.97
2022-10-02T10:49:41.083Z,95881.75
2022-10-02T10:52:15.194Z,95887.31
2022-10-02T10:54:54.731Z,95881.53
2022-10-02T10:57:36.921Z,95876.41
2022-10-02T11:00:23.303Z,95878.56
2022-10-02T11:03:27.819Z,95877.53
2022-10-02T11:06:31.264Z,95872.59
2022-10-02T11:09:23.806Z,95876.88
2022-10-02T11:12:01.193Z,95875.06
2022-10-02T11:14:34.667Z,95886.47
2022-10-02T11:17:16.216Z,95881.00
2022-10-02T11:20:11.808Z,95871.88
2022-10-02T11:22:53.573Z,95863.44
2022-10-02T11:25:47.271Z,95862.94
2022-10-02T11:28:43.662Z,95868.97
2022-10-02T11:31:27.994Z,95866.41
2022-10-02T11:34:05.581Z,95863.06
2022-10-02T11:36:47.980Z,95855.50
2022-10-02T11:39:17.425Z,95861.41
2022-10-02T11:42:15.348Z,95854.34
2022-10-02T11:44:55.566Z,95847.81
2022-10-02T11:47:59.014Z,95856.75
2022-10-02T11:51:10.398Z,95864.03
2022-10-02T11:53:45.170Z,95857.69
2022-10-02T11:56:44.558Z,95863.69
2022-10-02T11:59:33.652Z,95858.50
2022-10-02T12:02:05.483Z,95857.69
2022-10-02T12:04:42.104Z,95862.13
2022-10-02T12:07:19.202Z,95855.25
2022-10-02T12:09:54.752Z,95863.69
2022-10-02T12:12:29.838Z,95872.09
2022-10-02T12:15:00.684Z,95867.81
2022-10-02T12:17:59.339Z,95866.44
2022-10-02T12:20:53.946Z,95861.34
2022-10-02T12:23:47.317Z,95863.09
2022-10-02T12:26:42.106Z,95864.97
2022-10-02T12:29:11.450Z,95869.84
2022-10-02T12:31:51.512Z,95867.16
2022-10-02T12:34:33.274Z,95860.00
2022-10-02T12:37:02.669Z,95870.78
2022-10-02T12:39:41.641Z,95857.03
2022-10-02T12:42:26.655Z,95855.75
2022-10-02T12:45:20.087Z,95855.56
2022-10-02T12:48:11.360Z,95856.69
2022-10-02T12:50:56.252Z,95845.03
2022-10-02T12:53:52.775Z,95852.88
2022-10-02T12:56:48.549Z,95853.19
2022-10-02T12:59:19.552Z,95848.63
2022-10-02T13:02:14.314Z,95852.03
2022-10-02T13:05:26.754Z,95849.63
2022-10-02T13:08:23.097Z,95848.25
2022-10-02T13:10:57.715Z,95852.25
2022-10-02T13:13:35.488Z,95850.66
2022-10-02T13:16:06.281Z,95851.38
2022-10-02T13:18:55.462Z,95855.25
2022-10-02T13:21:27.743Z,95859.16
2022-10-02T13:24:05.414Z,95854.88
2022-10-02T13:26:36.423Z,95854.16
2022-10-02T13:29:19.486Z,95848.78
2022-10-02T13:31:55.715Z,95847.75
2022-10-02T13:34:38.319Z,95842.06
2022-10-02T13:37:15.499Z,95851.22
2022-10-02T13:39:55.889Z,95853.63
2022-10-02T13:42:30.546Z,95855.66
2022-10-02T13:45:01.676Z,95853.53
2022-10-02T13:47:41.366Z,95855.44
2022-10-02T13:50:18.448Z,95850.84
2022-10-02T13:52:53.872Z,95853.34
2022-10-02T13:55:24.571Z,95841.69
2022-10-02T13:58:15.646Z,95846.25
2022-10-02T14:00:54.166Z,95847.81
2022-10-02T14:03:25.916Z,95851.88
2022-10-02T14:05:57.976Z,95845.13
2022-10-02T14:08:50.024Z,95850.06
2022-10-02T14:11:25.543Z,95851.94
2022-10-02T14:14:03.334Z,95851.00
2022-10-02T14:16:40.231Z,95841.41
2022-10-02T14:19:23.678Z,95851.63
2022-10-02T14:21:57.715Z,95845.97
2022-10-02T14:24:48.707Z,95856.72
2022-10-02T14:27:22.299Z,95857.09
2022-10-02T14:29:50.808Z,95861.44
2022-10-02T14:32:40.751Z,95856.66
2022-10-02T14:35:36.133Z,95869.50
2022-10-02T14:38:11.775Z,95876.19
2022-10-02T14:40:45.226Z,95871.25
2022-10-02T14:43:26.406Z,95866.97
2022-10-02T14:46:16.602Z,95874.63
2022-10-02T14:48:57.885Z,95868.59
2022-10-02T14:51:33.152Z,95869.63
2022-10-02T14:54:15.958Z,95874.78
2022-10-02T14:56:55.938Z,95868.25
2022-10-02T14:59:42.675Z,95881.50
2022-10-02T15:02:23.550Z,95880.53
2022-10-02T15:04:53.961Z,95877.13
2022-10-02T15:07:22.127Z,95885.75
2022-10-02T15:09:59.152Z,95884.47
2022-10-02T15:12:29.982Z,95886.91
2022-10-02T15:15:08.953Z,95889.03
2022-10-02T15:18:00.377Z,95896.31
2022-10-02T15:20:35.619Z,95899.03
2022-10-02T15:23:04.491Z,95894.53
2022-10-02T15:25:45.040Z,95897.50
2022-10-02T15:28:35.398Z,95905.31
2022-10-02T15:31:10.485Z,95905.38
2022-10-02T15:33:39.010Z,95904.34
2022-10-02T15:36:22.491Z,95906.00
2022-10-02T15:39:10.900Z,95907.38
2022-10-02T15:41:50.100Z,95909.81
2022-10-02T15:44:54.475Z,95904.22
2022-10-02T15:47:45.858Z,95904.50
2022-10-02T15:50:24.847Z,95908.06
2022-10-02T15:53:00.377Z,95905.19
2022-10-02T15:55:31.286Z,95893.13
2022-10-02T15:58:08.314Z,95898.59
2022-10-02T16:00:58.978Z,95905.94
2022-10-02T16:03:30.512Z,95905.22
2022-10-02T16:06:00.223Z,95909.56
2022-10-02T16:09:05.784Z,95917.97
2022-10-02T16:12:04.942Z,95914.00
2022-10-02T16:14:38.068Z,95920.22
2022-10-02T16:17:29.970Z,95922.75
2022-10-02T16:20:23.246Z,95909.06
2022-10-02T16:23:01.458Z,95925.19
2022-10-02T16:25:36.573Z,95926.00
2022-10-02T16:28:10.700Z,95922.28
2022-10-02T16:30:42.030Z,95924.44
2022-10-02T16:33:16.866Z,95921.75
2022-10-02T16:36:30.311Z,95927.63
2022-10-02T16:39:05.444Z,95935.69
2022-10-02T16:41:38.420Z,95939.47
2022-10-02T16:44:38.736Z,95933.06
2022-10-02T16:47:10.307Z,95925.88
2022-10-02T16:49:44.666Z,95935.81
2022-10-02T16:52:17.113Z,95943.84
2022-10-02T16:54:48.557Z,95937.13
2022-10-02T16:57:22.397Z,95943.59
2022-10-02T16:59:52.284Z,95941.19
2022-10-02T17:02:21.605Z,95946.78
2022-10-02T17:04:56.611Z,95948.16
2022-10-02T17:07:33.321Z,95958.56
2022-10-02T17:10:03.464Z,95970.06
2022-10-02T17:12:33.597Z,95983.22
2022-10-02T17:15:06.509Z,95996.34
2022-10-02T17:17:45.417Z,96038.94
2022-10-02T17:20:17.866Z,96031.41
2022-10-02T17:22:53.071Z,96025.50
2022-10-02T17:25:27.118Z,96020.94
2022-10-02T17:27:56.594Z,96020.41
2022-10-02T17:30:27.198Z,96023.38
2022-10-02T17:33:12.758Z,96014.50
2022-10-02T17:35:47.754Z,96027.88
2022-10-02T17:38:47.240Z,96024.16
2022-10-02T17:41:42.406Z,96029.22
2022-10-02T17:44:17.098Z,96030.78
2022-10-02T17:46:59.015Z,96032.94
2022-10-02T17:49:31.867Z,96040.13
2022-10-02T17:52:24.055Z,96043.06
2022-10-02T17:55:15.998Z,96036.06
2022-10-02T17:57:51.171Z,96034.72
2022-10-02T18:00:21.331Z,96040.81
2022-10-02T18:03:27.432Z,96044.81
2022-10-02T18:05:59.892Z,96050.63
2022-10-02T18:09:00.645Z,96050.56
2022-10-02T18:11:40.608Z,96053.16
2022-10-02T18:14:14.670Z,96061.69
2022-10-02T18:16:50.865Z,96060.81
2022-10-02T18:19:29.062Z,96067.69
2022-10-02T18:22:11.524Z,96072.69
2022-10-02T18:25:03.990Z,96068.63
2022-10-02T18:27:42.893Z,96073.63
2022-10-02T18:30:15.532Z,96068.50
2022-10-02T18:33:05.005Z,96078.91
2022-10-02T18:35:37.478Z,96084.97
2022-10-02T18:38:13.821Z,96076.13
2022-10-02T18:41:05.841Z,96084.31
2022-10-02T18:43:55.459Z,96076.28
2022-10-02T18:46:31.246Z,96078.06
2022-10-02T18:49:09.226Z,96082.00
2022-10-02T18:52:09.439Z,96081.66
2022-10-02T18:54:43.221Z,96086.16
2022-10-02T18:57:22.308Z,96085.03
2022-10-02T18:59:56.239Z,96085.47
2022-10-02T19:02:31.186Z,96093.16
2022-10-02T19:05:10.366Z,96098.44
2022-10-02T19:07:40.366Z,96105.06
2022-10-02T19:10:27.193Z,96106.69
2022-10-02T19:12:56.644Z,96110.16
2022-10-02T19:15:28.295Z,96111.78
2022-10-02T19:18:01.142Z,96121.69
2022-10-02T19:20:44.704Z,96129.44
2022-10-02T19:23:18.733Z,96121.22
2022-10-02T19:25:47.631Z,96129.50
2022-10-02T19:28:18.897Z,96128.47
2022-10-02T19:30:50.005Z,96124.97
2022-10-02T19:33:21.819Z,96131.91
2022-10-02T19:35:50.051Z,96138.59
2022-10-02T19:38:25.051Z,96129.88
2022-10-02T19:40:54.035Z,96131.72
2022-10-02T19:43:24.665Z,96147.50
2022-10-02T19:45:56.983Z,96148.34
2022-10-02T19:48:26.315Z,96154.53
2022-10-02T19:50:58.309Z,96152.78
2022-10-02T19:53:27.033Z,96148.13
2022-10-02T19:55:56.899Z,96151.22
2022-10-02T19:58:28.352Z,96156.91
2022-10-02T20:00:58.024Z,96156.94
2022-10-02T20:03:26.312Z,96151.66
2022-10-02T20:05:55.321Z,96164.50
2022-10-02T20:08:24.172Z,96167.97
2022-10-02T20:10:58.493Z,96164.81
2022-10-02T20:13:28.396Z,96168.28
2022-10-02T20:16:17.100Z,96175.25
2022-10-02T20:18:50.473Z,96187.53
2022-10-02T20:21:20.096Z,96182.75
2022-10-02T20:23:50.635Z,96192.91
2022-10-02T20:26:20.379Z,96196.94
2022-10-02T20:28:52.031Z,96203.66
2022-10-02T20:31:23.479Z,96201.56
2022-10-02T20:33:52.736Z,96213.00
2022-10-02T20:36:21.886Z,96207.44
2022-10-02T20:38:52.186Z,96220.53
2022-10-02T20:41:22.498Z,96208.78
2022-10-02T20:43:52.127Z,96220.03
2022-10-02T20:46:46.190Z,96217.13
2022-10-02T20:49:30.777Z,96225.66
2022-10-02T20:52:13.953Z,96222.50
2022-10-02T20:54:49.054Z,96226.53
2022-10-02T20:58:00.309Z,96233.75
2022-10-02T21:00:29.561Z,96230.81
2022-10-02T21:03:19.234Z,96241.50
2022-10-02T21:05:55.236Z,96240.47
2022-10-02T21:08:40.792Z,96244.75
2022-10-02T21:11:17.665Z,96244.47
2022-10-02T21:14:25.370Z,96250.63
2022-10-02T21:17:04.076Z,96251.66
2022-10-02T21:20:00.347Z,96258.63
2022-10-02T21:22:50.345Z,96257.03
2022-10-02T21:25:44.412Z,96254.34
2022-10-02T21:28:47.909Z,96261.84
2022-10-02T21:31:32.493Z,96265.56
2022-10-02T21:34:08.860Z,96271.16
2022-10-02T21:36:42.811Z,96271.97
2022-10-02T21:39:36.370Z,96270.59
2022-10-02T21:42:39.712Z,96276.44
2022-10-02T21:45:55.411Z,96282.59
2022-10-02T21:48:50.769Z,96290.06
2022-10-02T21:51:31.334Z,96290.59
2022-10-02T21:54:30.354Z,96290.59
2022-10-02T21:57:18.971Z,96298.38
2022-10-02T22:00:08.401Z,96298.94
2022-10-02T22:03:12.987Z,96305.66
2022-10-02T22:06:05.326Z,96305.66
2022-10-02T22:08:38.933Z,96308.31
2022-10-02T22:11:12.374Z,96306.69
2022-10-02T22:13:43.305Z,96305.66
2022-10-02T22:16:18.826Z,96307.25
2022-10-02T22:18:50.166Z,96308.00
2022-10-02T22:21:41.176Z,96316.81
2022-10-02T22:24:17.316Z,96314.91
2022-10-02T22:27:19.296Z,96312.50
2022-10-02T22:29:48.235Z,96302.06
2022-10-02T22:32:53.538Z,96309.25
2022-10-02T22:35:25.914Z,96308.09
2022-10-02T22:38:04.358Z,96314.44
2022-10-02T22:40:33.418Z,96313.00
2022-10-02T22:43:05.169Z,96310.28
2022-10-02T22:45:35.419Z,96308.59
2022-10-02T22:48:05.622Z,96306.66
2022-10-02T22:50:35.979Z,96308.97
2022-10-02T22:53:08.891Z,96314.75
2022-10-02T22:55:38.118Z,96313.94
2022-10-02T22:58:13.924Z,96308.84
2022-10-02T23:00:52.995Z,96313.94
2022-10-02T23:03:24.774Z,96313.69
2022-10-02T23:05:54.063Z,96315.28
2022-10-02T23:08:26.245Z,96317.22
2022-10-02T23:10:55.379Z,96316.50
2022-10-02T23:13:26.472Z,96306.88
2022-10-02T23:15:57.704Z,96312.50
2022-10-02T23:18:34.639Z,96309.03
2022-10-02T23:21:06.870Z,96312.22
2022-10-02T23:23:36.333Z,96320.22
2022-10-02T23:26:07.831Z,96321.56
2022-10-02T23:28:39.199Z,96319.22
2022-10-02T23:31:13.033Z,96322.44
2022-10-02T23:33:45.718Z,96315.72
2022-10-02T23:36:20.587Z,96319.47
2022-10-02T23:38:51.660Z,96319.22
2022-10-02T23:41:39.207Z,96326.16
2022-10-02T23:44:17.413Z,96329.66
2022-10-02T23:46:57.854Z,96328.84
2022-10-02T23:49:27.879Z,96338.47
2022-10-02T23:51:59.122Z,96340.63
2022-10-02T23:54:42.663Z,96339.09
2022-10-02T23:57:43.896Z,96336.50
